createdAt,value
2019-03-24T00:03:13.738Z,14.23
2019-03-24T00:08:19.151Z,10.30
2019-03-24T00:13:25.023Z,8.90
2019-03-24T00:18:30.382Z,11.63
2019-03-24T00:23:35.631Z,11.03
2019-03-24T00:28:40.793Z,9.07
2019-03-24T00:33:45.971Z,10.97
2019-03-24T00:38:51.097Z,11.20
2019-03-24T00:43:56.322Z,7.70
2019-03-24T00:49:01.500Z,15.20
2019-03-24T00:54:22.861Z,11.10
2019-03-24T00:59:30.879Z,11.33
2019-03-24T01:04:35.997Z,15.43
2019-03-24T01:09:41.164Z,10.33
2019-03-24T01:14:46.255Z,12.87
2019-03-24T01:19:51.431Z,12.27
2019-03-24T01:24:56.752Z,10.20
2019-03-24T01:30:01.990Z,9.83
2019-03-24T01:35:07.834Z,9.93
2019-03-24T01:40:13.255Z,10.43
2019-03-24T01:45:18.375Z,14.43
2019-03-24T01:50:23.681Z,15.67
2019-03-24T01:55:28.820Z,11.17
2019-03-24T02:00:34.117Z,14.77
2019-03-24T02:05:39.295Z,11.33
2019-03-24T02:10:44.575Z,12.27
2019-03-24T02:15:49.719Z,14.63
2019-03-24T02:20:58.042Z,12.30
2019-03-24T02:26:03.285Z,14.30
2019-03-24T02:31:08.616Z,10.93
2019-03-24T02:36:13.853Z,10.80
2019-03-24T02:41:22.083Z,10.97
2019-03-24T02:46:27.176Z,18.33
2019-03-24T02:51:32.573Z,13.97
2019-03-24T02:56:37.753Z,15.73
2019-03-24T03:01:43.006Z,12.23
2019-03-24T03:06:48.183Z,16.87
2019-03-24T03:11:53.226Z,15.03
2019-03-24T03:16:58.356Z,14.27
2019-03-24T03:22:03.819Z,15.57
2019-03-24T03:27:09.141Z,14.13
2019-03-24T03:32:14.232Z,15.67
2019-03-24T03:37:19.559Z,15.50
2019-03-24T03:42:23.865Z,13.50
2019-03-24T03:47:29.006Z,13.90
2019-03-24T03:52:34.323Z,12.70
2019-03-24T03:57:42.237Z,15.10
2019-03-24T04:02:47.419Z,12.47
2019-03-24T04:07:52.805Z,13.60
2019-03-24T04:12:58.037Z,18.13
2019-03-24T04:18:03.284Z,15.37
2019-03-24T04:23:08.448Z,17.47
2019-03-24T04:28:13.759Z,16.27
2019-03-24T04:33:18.781Z,15.43
2019-03-24T04:38:23.851Z,12.83
2019-03-24T04:43:29.152Z,13.17
2019-03-24T04:48:34.322Z,14.83
2019-03-24T04:53:39.407Z,14.13
2019-03-24T04:58:44.524Z,12.33
2019-03-24T05:03:49.772Z,9.30
2019-03-24T05:08:55.876Z,14.10
2019-03-24T05:14:01.259Z,11.93
2019-03-24T05:19:06.518Z,14.17
2019-03-24T05:24:11.749Z,13.80
2019-03-24T05:29:16.909Z,10.90
2019-03-24T05:34:22.279Z,12.27
2019-03-24T05:39:27.504Z,14.93
2019-03-24T05:44:32.744Z,8.93
2019-03-24T05:49:37.920Z,9.87
2019-03-24T05:54:47.191Z,9.63
2019-03-24T05:59:52.350Z,13.80
2019-03-24T06:04:57.363Z,12.07
2019-03-24T06:10:02.624Z,10.00
2019-03-24T06:15:09.039Z,12.63
2019-03-24T06:20:14.518Z,12.70
2019-03-24T06:25:19.727Z,15.13
2019-03-24T06:30:24.798Z,15.13
2019-03-24T06:35:30.159Z,16.17
2019-03-24T06:40:35.240Z,12.13
2019-03-24T06:45:40.469Z,12.80
2019-03-24T06:50:45.680Z,14.93
2019-03-24T06:55:50.910Z,17.80
2019-03-24T07:00:56.459Z,19.33
2019-03-24T07:06:01.714Z,16.47
2019-03-24T07:11:13.235Z,18.30
2019-03-24T07:16:13.976Z,17.70
2019-03-24T07:21:19.100Z,14.63
2019-03-24T07:26:24.631Z,12.27
2019-03-24T07:31:29.807Z,11.87
2019-03-24T07:36:35.024Z,17.23
2019-03-24T07:41:45.072Z,16.70
2019-03-24T07:46:50.614Z,10.73
2019-03-24T07:51:59.185Z,16.50
2019-03-24T07:57:04.546Z,16.90
2019-03-24T08:02:09.924Z,19.87
2019-03-24T08:07:15.282Z,12.77
2019-03-24T08:12:20.558Z,11.77
2019-03-24T08:17:31.578Z,14.80
2019-03-24T08:22:36.769Z,9.20
2019-03-24T08:27:41.968Z,14.83
2019-03-24T08:32:47.077Z,17.67
2019-03-24T08:37:52.328Z,20.03
2019-03-24T08:42:57.633Z,16.73
2019-03-24T08:48:03.025Z,11.00
2019-03-24T08:53:08.199Z,13.53
2019-03-24T08:58:13.463Z,14.70
2019-03-24T09:03:18.721Z,13.17
2019-03-24T09:08:24.048Z,16.60
2019-03-24T09:13:29.344Z,15.17
2019-03-24T09:18:34.671Z,17.07
2019-03-24T09:23:39.918Z,15.07
2019-03-24T09:28:45.210Z,11.03
2019-03-24T09:33:53.769Z,11.27
2019-03-24T09:38:59.210Z,13.80
2019-03-24T09:44:04.712Z,16.73
2019-03-24T09:49:09.847Z,12.60
2019-03-24T09:54:14.949Z,16.13
2019-03-24T09:59:20.205Z,9.20
2019-03-24T10:04:25.688Z,9.37
2019-03-24T10:09:31.098Z,10.17
2019-03-24T10:14:36.666Z,10.90
2019-03-24T10:19:41.822Z,10.50
2019-03-24T10:24:47.093Z,10.90
2019-03-24T10:29:52.327Z,9.30
2019-03-24T10:34:57.393Z,11.63
2019-03-24T10:40:02.729Z,10.27
2019-03-24T10:45:14.714Z,11.53
2019-03-24T10:50:19.978Z,13.70
2019-03-24T10:55:25.165Z,10.83
2019-03-24T11:00:46.148Z,15.13
2019-03-24T11:05:52.739Z,11.17
2019-03-24T11:10:57.870Z,10.77
2019-03-24T11:16:03.136Z,10.63
2019-03-24T11:21:08.950Z,10.30
2019-03-24T11:26:14.304Z,9.77
2019-03-24T11:31:21.752Z,10.40
2019-03-24T11:36:27.127Z,11.57
2019-03-24T11:41:32.326Z,11.37
2019-03-24T11:46:37.776Z,11.60
2019-03-24T11:51:45.338Z,10.77
2019-03-24T11:56:50.525Z,12.13
2019-03-24T12:01:55.900Z,8.77
2019-03-24T12:07:01.238Z,10.40
2019-03-24T12:12:06.614Z,10.07
2019-03-24T12:17:11.838Z,8.33
2019-03-24T12:22:17.119Z,8.63
2019-03-24T12:27:22.320Z,8.23
2019-03-24T12:32:27.566Z,6.33
2019-03-24T12:37:33.030Z,7.60
2019-03-24T12:42:38.863Z,7.63
2019-03-24T12:47:44.305Z,8.67
2019-03-24T12:52:49.571Z,11.13
2019-03-24T12:57:54.873Z,9.37
2019-03-24T13:03:00.249Z,7.07
2019-03-24T13:08:16.442Z,5.70
2019-03-24T13:13:21.656Z,4.53
2019-03-24T13:18:27.010Z,7.17
2019-03-24T13:23:32.187Z,4.67
2019-03-24T13:28:37.418Z,8.17
2019-03-24T13:33:42.614Z,9.63
2019-03-24T13:38:47.863Z,9.93
2019-03-24T13:43:53.432Z,8.60
2019-03-24T13:48:58.747Z,8.70
2019-03-24T13:54:04.019Z,5.27
2019-03-24T13:59:09.315Z,9.97
2019-03-24T14:04:14.575Z,8.80
2019-03-24T14:09:19.611Z,5.47
2019-03-24T14:14:24.842Z,9.07
2019-03-24T14:19:30.315Z,6.30
2019-03-24T14:24:35.530Z,5.33
2019-03-24T14:29:40.819Z,6.63
2019-03-24T14:34:46.069Z,6.50
2019-03-24T14:39:51.458Z,9.07
2019-03-24T14:44:56.731Z,6.57
2019-03-24T14:50:02.166Z,6.07
2019-03-24T14:55:07.641Z,6.80
2019-03-24T15:00:13.217Z,6.63
2019-03-24T15:05:18.666Z,9.83
2019-03-24T15:10:23.917Z,7.63
2019-03-24T15:15:29.386Z,8.17
2019-03-24T15:20:34.668Z,14.80
2019-03-24T15:25:39.842Z,6.00
2019-03-24T15:30:45.283Z,6.37
2019-03-24T15:35:50.488Z,5.60
2019-03-24T15:40:55.873Z,3.73
2019-03-24T15:46:01.286Z,6.47
2019-03-24T15:51:16.394Z,4.80
2019-03-24T15:56:13.634Z,9.27
2019-03-24T16:01:18.819Z,8.97
2019-03-24T16:06:24.155Z,5.80
2019-03-24T16:11:29.460Z,6.77
2019-03-24T16:16:34.631Z,8.73
2019-03-24T16:21:39.905Z,9.03
2019-03-24T16:26:45.191Z,6.27
2019-03-24T16:31:50.453Z,6.43
2019-03-24T16:36:55.683Z,8.37
2019-03-24T16:42:01.082Z,6.90
2019-03-24T16:47:06.371Z,10.50
2019-03-24T16:52:11.548Z,8.63
2019-03-24T16:57:16.763Z,7.77
2019-03-24T17:02:21.991Z,6.27
2019-03-24T17:07:27.320Z,10.57
2019-03-24T17:12:32.699Z,9.70
2019-03-24T17:17:37.921Z,15.03
2019-03-24T17:22:43.146Z,10.67
2019-03-24T17:27:48.441Z,11.43
2019-03-24T17:32:53.686Z,11.47
2019-03-24T17:37:58.962Z,11.00
2019-03-24T17:43:04.397Z,8.70
2019-03-24T17:48:13.085Z,5.60
2019-03-24T17:53:18.371Z,5.67
2019-03-24T17:58:25.712Z,7.53
2019-03-24T18:03:31.025Z,5.87
2019-03-24T18:08:36.275Z,4.63
2019-03-24T18:13:44.800Z,9.47
2019-03-24T18:18:50.105Z,6.17
2019-03-24T18:23:55.609Z,6.27
2019-03-24T18:29:00.956Z,7.27
2019-03-24T18:34:06.253Z,6.10
2019-03-24T18:39:11.454Z,7.33
2019-03-24T18:44:16.666Z,6.37
2019-03-24T18:49:21.923Z,6.23
2019-03-24T18:54:27.043Z,7.60
2019-03-24T18:59:31.970Z,7.87
2019-03-24T19:04:36.971Z,7.40
2019-03-24T19:09:43.163Z,7.77
2019-03-24T19:14:48.293Z,11.23
2019-03-24T19:19:53.391Z,5.87
2019-03-24T19:25:00.436Z,10.60
2019-03-24T19:30:06.910Z,11.13
2019-03-24T19:35:14.615Z,12.33
2019-03-24T19:40:27.756Z,7.33
2019-03-24T19:45:33.006Z,8.67
2019-03-24T19:50:37.470Z,7.57
2019-03-24T19:55:42.974Z,9.03
2019-03-24T20:00:48.484Z,5.83
2019-03-24T20:05:52.913Z,5.77
2019-03-24T20:10:57.650Z,8.87
2019-03-24T20:16:02.396Z,6.77
2019-03-24T20:21:06.986Z,5.47
2019-03-24T20:26:11.438Z,6.80
2019-03-24T20:31:15.729Z,6.87
2019-03-24T20:36:20.086Z,8.30
2019-03-24T20:41:25.644Z,7.70
2019-03-24T20:46:30.314Z,7.33
2019-03-24T20:51:35.402Z,10.73
2019-03-24T20:56:40.042Z,9.30
2019-03-24T21:01:44.472Z,6.23
2019-03-24T21:06:49.767Z,7.73
2019-03-24T21:11:54.535Z,6.23
2019-03-24T21:16:59.447Z,8.57
2019-03-24T21:22:04.686Z,8.47
2019-03-24T21:27:11.106Z,6.43
2019-03-24T21:32:16.570Z,6.17
2019-03-24T21:37:21.913Z,8.50
2019-03-24T21:42:26.339Z,8.50
2019-03-24T21:47:31.666Z,7.43
2019-03-24T21:52:36.984Z,7.80
2019-03-24T21:57:42.377Z,7.47
2019-03-24T22:02:46.934Z,8.87
2019-03-24T22:07:51.134Z,9.57
2019-03-24T22:12:56.491Z,7.80
2019-03-24T22:18:01.712Z,8.57
2019-03-24T22:23:06.166Z,10.10
2019-03-24T22:28:10.852Z,7.20
2019-03-24T22:33:16.179Z,8.67
2019-03-24T22:38:20.769Z,11.03
2019-03-24T22:43:27.046Z,10.83
2019-03-24T22:48:32.265Z,14.10
2019-03-24T22:53:37.640Z,9.50
2019-03-24T22:58:43.221Z,10.43
2019-03-24T23:03:48.030Z,10.83
2019-03-24T23:08:52.288Z,18.87
2019-03-24T23:13:56.648Z,15.37
2019-03-24T23:19:01.809Z,14.83
2019-03-24T23:24:15.233Z,16.40
2019-03-24T23:29:15.711Z,11.07
2019-03-24T23:34:21.015Z,11.40
2019-03-24T23:39:26.278Z,11.13
2019-03-24T23:44:30.718Z,8.30
2019-03-24T23:49:35.067Z,7.80
2019-03-24T23:54:40.162Z,9.17
2019-03-24T23:59:45.392Z,10.13
